Ruabon, United Kingdom
Current Conditions -  °F | °C
As of 8:50 PM on Friday 24 Oct 2014 (Local Time) from EGNR Reporting Station
Few Clouds Few Clouds  
Wind Chill: 10°   Ceiling: Unl
Heat Index: 10°   Visibility: 6mi
Dew Point:   Wind: 9mph
Humidity: 82%   Direction: 220°SW
Pressure: 29.91"   Gusts: NA
Location:  52.99°N, 3.04°W
Report Text: EGNR 241950Z 22008KT 9999 FEW035 10/07 Q1013
Loading
Personal Weather Stations






























Interactive Weather Map
Tropical Storm Tracking
New forecast layout! Learn more

10-Day Weather Forecast

Advertisements
Track Severe Weather on mobile